Time;durP1;ratioP1;P1;durP2;ratioP2;P2;SDS_P1;SDS_P2;PMS_P1;PMS_P2;Temp;Humidity;BMP_temperature;BMP_pressure;BME280_temperature;BME280_humidity;BME280_pressure;Samples;Min_cycle;Max_cycle;Signal;HPM_P1;HPM_P2
2023/06/14 00:00:48;;;;;;;3.72;2.00;;;;;;;12.32;71.43;97632.91;10557756;28;20401;-68
2023/06/14 00:06:18;;;;;;;2.92;1.98;;;;;;;12.27;72.27;97638.88;10573529;28;20146;-68
2023/06/14 00:11:40;;;;;;;2.60;1.60;;;;;;;12.27;71.80;97636.09;10556810;28;20116;-69
2023/06/14 00:17:02;;;;;;;3.33;2.20;;;;;;;12.23;71.86;97633.75;10571423;28;20473;-68
2023/06/14 00:22:24;;;;;;;4.85;1.80;;;;;;;12.15;71.99;97636.06;10557589;28;20548;-69
2023/06/14 00:27:45;;;;;;;4.75;2.13;;;;;;;12.11;72.13;97632.31;10571093;28;20186;-68
2023/06/14 00:33:05;;;;;;;3.28;1.90;;;;;;;12.03;72.35;97626.97;10556652;28;20039;-68
2023/06/14 00:38:26;;;;;;;3.25;1.92;;;;;;;11.94;72.51;97630.59;10585987;28;20074;-68
2023/06/14 00:43:46;;;;;;;2.90;2.20;;;;;;;11.95;72.41;97629.25;10570460;28;20059;-69
2023/06/14 00:49:08;;;;;;;3.67;2.17;;;;;;;11.89;72.45;97631.72;10556061;28;20116;-68
2023/06/14 00:54:30;;;;;;;5.72;2.25;;;;;;;11.83;72.35;97631.34;10542087;28;20086;-69
2023/06/14 00:59:50;;;;;;;3.10;2.03;;;;;;;11.82;72.80;97622.22;10569471;28;20105;-68
2023/06/14 01:05:12;;;;;;;5.35;1.85;;;;;;;11.83;72.47;97623.66;10584618;28;20486;-68
2023/06/14 01:10:46;;;;;;;4.82;1.77;;;;;;;11.87;72.93;97623.94;10555448;28;20074;-68
2023/06/14 01:16:07;;;;;;;3.40;1.92;;;;;;;11.90;72.88;97628.31;10584189;28;20116;-69
2023/06/14 01:21:28;;;;;;;4.35;1.90;;;;;;;11.94;72.92;97630.59;10554762;28;20378;-68
2023/06/14 01:26:55;;;;;;;4.00;2.30;;;;;;;11.90;72.84;97621.97;10567687;28;20097;-68
2023/06/14 01:32:17;;;;;;;3.03;1.83;;;;;;;11.89;73.00;97621.25;10542201;28;20119;-68
2023/06/14 01:37:38;;;;;;;6.60;2.20;;;;;;;11.86;72.87;97621.72;10554315;28;20118;-68
2023/06/14 01:42:58;;;;;;;3.55;2.10;;;;;;;11.85;73.17;97623.06;10539838;28;20539;-68
2023/06/14 01:48:19;;;;;;;3.22;2.28;;;;;;;11.78;73.29;97621.22;10553906;28;20127;-69
2023/06/14 01:53:41;;;;;;;3.72;2.40;;;;;;;11.74;72.94;97622.41;10567918;28;20118;-68
2023/06/14 01:59:04;;;;;;;4.43;2.35;;;;;;;11.75;73.17;97623.88;10553968;28;20071;-68
2023/06/14 02:04:24;;;;;;;3.03;2.10;;;;;;;11.72;73.20;97627.16;10552873;28;20048;-69
2023/06/14 02:09:45;;;;;;;6.78;2.45;;;;;;;11.65;72.60;97619.72;10582475;28;20441;-68
2023/06/14 02:15:06;;;;;;;4.43;2.28;;;;;;;11.55;73.22;97617.06;10552826;28;20115;-68
2023/06/14 02:20:28;;;;;;;4.30;2.45;;;;;;;11.49;72.97;97622.28;10552859;28;20111;-69
2023/06/14 02:25:50;;;;;;;4.22;2.35;;;;;;;11.43;73.44;97635.88;10538951;28;20480;-69
2023/06/14 02:31:10;;;;;;;6.50;2.60;;;;;;;11.38;73.69;97631.34;10581618;28;20075;-68
2023/06/14 02:36:31;;;;;;;4.55;3.03;;;;;;;11.31;73.55;97638.63;10551811;28;20166;-68
2023/06/14 02:41:53;;;;;;;4.47;2.92;;;;;;;11.28;73.72;97637.03;10566541;28;20110;-69
2023/06/14 02:47:14;;;;;;;5.15;2.50;;;;;;;11.16;73.71;97642.59;10581631;28;20118;-68
2023/06/14 02:52:37;;;;;;;4.00;2.85;;;;;;;11.06;74.40;97644.75;10581581;28;20510;-68
2023/06/14 02:57:58;;;;;;;4.70;3.20;;;;;;;11.06;74.58;97646.81;10566174;28;20074;-68
2023/06/14 03:03:19;;;;;;;3.65;2.97;;;;;;;11.01;74.89;97643.03;10565789;28;20488;-69
2023/06/14 03:08:45;;;;;;;5.00;3.03;;;;;;;11.01;75.19;97656.28;10552228;28;20054;-68
2023/06/14 03:14:11;;;;;;;5.88;3.38;;;;;;;10.98;75.14;97652.59;10552483;28;20067;-69
2023/06/14 03:19:32;;;;;;;4.10;2.55;;;;;;;10.97;75.20;97651.13;10566231;28;20036;-68
2023/06/14 03:24:53;;;;;;;6.15;3.17;;;;;;;10.98;75.40;97652.59;10551376;28;20067;-68
2023/06/14 03:30:16;;;;;;;5.43;2.90;;;;;;;11.05;75.87;97657.25;10565342;28;20071;-68
2023/06/14 03:35:41;;;;;;;4.45;2.72;;;;;;;11.15;75.79;97671.88;10551693;28;20064;-68
2023/06/14 03:41:03;;;;;;;4.80;3.25;;;;;;;11.35;75.87;97668.91;10551536;28;20496;-68
2023/06/14 03:46:25;;;;;;;6.55;3.10;;;;;;;11.56;75.94;97677.22;10564928;28;20114;-68
2023/06/14 03:51:50;;;;;;;5.80;3.20;;;;;;;11.70;75.71;97686.50;10587886;28;20050;-68
2023/06/14 03:57:15;;;;;;;4.45;3.10;;;;;;;11.90;75.19;97684.25;10559238;28;20063;-68
2023/06/14 04:02:37;;;;;;;4.75;3.38;;;;;;;12.02;74.96;97684.97;10558197;28;20121;-68
2023/06/14 04:08:00;;;;;;;4.60;3.10;;;;;;;12.10;74.80;97684.75;10572005;28;20239;-68
2023/06/14 04:13:25;;;;;;;4.75;2.83;;;;;;;12.23;74.19;97691.78;10558162;28;20165;-68
2023/06/14 04:18:48;;;;;;;5.25;3.03;;;;;;;12.33;73.62;97681.94;10557394;28;20553;-68
2023/06/14 04:24:13;;;;;;;6.85;2.85;;;;;;;12.65;73.46;97688.00;10557182;28;20127;-68
2023/06/14 04:29:38;;;;;;;4.85;2.80;;;;;;;12.86;72.91;97690.63;10557795;28;20485;-68
2023/06/14 04:35:05;;;;;;;4.13;2.55;;;;;;;13.18;71.99;97693.81;10570852;28;20497;-69
2023/06/14 04:40:27;;;;;;;9.38;3.42;;;;;;;13.29;70.47;97689.53;10570393;28;20042;-68
2023/06/14 04:45:47;;;;;;;4.88;2.95;;;;;;;13.54;70.30;97689.53;10556262;28;20410;-68
2023/06/14 04:51:08;;;;;;;5.50;2.80;;;;;;;13.58;68.89;97694.63;10556066;28;20122;-68
2023/06/14 04:56:30;;;;;;;4.07;2.95;;;;;;;13.73;68.38;97705.28;10541961;28;20481;-69
2023/06/14 05:01:52;;;;;;;5.18;3.17;;;;;;;13.89;67.21;97703.34;10569797;28;20052;-68
2023/06/14 05:07:14;;;;;;;5.85;3.00;;;;;;;14.07;66.93;97702.88;10555492;28;20443;-68
2023/06/14 05:12:36;;;;;;;5.43;3.22;;;;;;;14.43;65.63;97704.78;10569392;28;20115;-69
2023/06/14 05:17:58;;;;;;;6.05;3.00;;;;;;;14.72;64.33;97700.66;10555046;28;20115;-69
2023/06/14 05:23:19;;;;;;;6.05;3.22;;;;;;;14.74;63.34;97704.28;10584170;28;20067;-69
2023/06/14 05:28:39;;;;;;;5.00;3.47;;;;;;;14.65;63.71;97713.66;10569052;28;20127;-68
2023/06/14 05:34:00;;;;;;;5.13;2.97;;;;;;;15.15;63.44;97717.53;10554212;28;20115;-68
2023/06/14 05:39:21;;;;;;;4.63;2.92;;;;;;;15.52;62.40;97722.13;10554189;28;20067;-69
2023/06/14 05:44:41;;;;;;;8.23;3.00;;;;;;;16.17;61.93;97733.63;10583090;28;20040;-69
2023/06/14 05:50:02;;;;;;;4.07;3.15;;;;;;;16.37;59.94;97723.28;10567713;28;20047;-68
2023/06/14 05:55:23;;;;;;;6.38;3.38;;;;;;;16.73;59.75;97724.19;10553180;28;20370;-69
2023/06/14 06:00:44;;;;;;;7.03;3.67;;;;;;;17.03;58.17;97724.00;10582349;28;20039;-69
2023/06/14 06:06:05;;;;;;;6.03;3.35;;;;;;;17.46;56.51;97738.47;10524865;28;20494;-69
2023/06/14 06:11:25;;;;;;;6.05;3.45;;;;;;;17.70;55.25;97740.88;10524221;28;20157;-69
2023/06/14 06:16:52;;;;;;;4.43;3.10;;;;;;;18.24;53.60;97750.00;10511036;28;20589;-69
2023/06/14 06:22:13;;;;;;;7.82;3.20;;;;;;;19.52;50.50;97754.50;10524845;28;20513;-69
2023/06/14 06:27:33;;;;;;;6.00;2.90;;;;;;;19.83;49.16;97764.72;10524277;28;20094;-69
2023/06/14 06:32:55;;;;;;;5.65;3.20;;;;;;;20.54;46.37;97774.66;10538031;28;20059;-69
2023/06/14 06:38:18;;;;;;;4.60;2.50;;;;;;;21.77;45.25;97773.66;10524060;28;20390;-69
2023/06/14 06:43:39;;;;;;;5.90;3.20;;;;;;;22.86;41.95;97771.81;10524591;28;20047;-69
2023/06/14 06:49:02;;;;;;;5.82;3.13;;;;;;;22.56;41.04;97777.59;10510011;28;20409;-69
2023/06/14 06:54:22;;;;;;;4.95;2.45;;;;;;;22.96;40.21;97779.81;10509956;28;20047;-69
2023/06/14 06:59:43;;;;;;;6.57;2.90;;;;;;;22.04;39.87;97779.97;10538578;28;20115;-69
2023/06/14 07:05:04;;;;;;;4.88;2.67;;;;;;;21.90;40.91;97781.06;10523329;28;20413;-69
2023/06/14 07:10:25;;;;;;;6.22;2.90;;;;;;;23.03;40.23;97789.94;10509448;28;20500;-69
2023/06/14 07:15:46;;;;;;;4.95;2.45;;;;;;;24.09;36.67;97800.31;10523557;28;20544;-69
2023/06/14 07:21:07;;;;;;;5.13;2.70;;;;;;;24.20;35.87;97802.63;10523339;28;20044;-69
2023/06/14 07:26:28;;;;;;;3.78;2.28;;;;;;;24.28;35.67;97790.63;10545898;28;20075;-69
2023/06/14 07:31:49;;;;;;;5.75;2.90;;;;;;;23.01;35.48;97810.53;10546113;28;20067;-69
2023/06/14 07:37:09;;;;;;;6.82;3.10;;;;;;;21.77;37.58;97807.75;10530798;28;20140;-69
2023/06/14 07:42:30;;;;;;;7.82;2.97;;;;;;;21.23;39.39;97799.28;10530958;28;20047;-69
2023/06/14 07:47:51;;;;;;;4.32;2.95;;;;;;;22.51;38.39;97802.41;10530576;28;20449;-68
2023/06/14 07:53:12;;;;;;;7.00;2.55;;;;;;;23.95;36.61;97815.09;10530554;28;20060;-69
2023/06/14 07:58:33;;;;;;;5.95;2.78;;;;;;;25.24;34.59;97812.56;10529923;28;20044;-69
2023/06/14 08:03:54;;;;;;;6.15;2.65;;;;;;;25.93;33.53;97816.06;10555206;28;20058;-69
2023/06/14 08:09:15;;;;;;;3.72;2.58;;;;;;;26.95;31.88;97813.13;10571871;28;20382;-69
2023/06/14 08:14:36;;;;;;;5.45;2.58;;;;;;;26.81;30.40;97825.22;10586818;28;20040;-69
2023/06/14 08:19:57;;;;;;;4.18;2.28;;;;;;;27.37;29.19;97824.72;10571504;28;20115;-69
2023/06/14 08:25:18;;;;;;;4.83;2.63;;;;;;;26.43;30.29;97829.31;10557151;28;20036;-69
2023/06/14 08:30:39;;;;;;;7.68;2.80;;;;;;;27.03;30.81;97819.63;10557260;28;20571;-69
2023/06/14 08:35:59;;;;;;;6.07;2.80;;;;;;;27.52;30.22;97821.91;10556031;28;20043;-69
2023/06/14 08:41:25;;;;;;;4.90;2.50;;;;;;;26.90;30.21;97818.09;10585816;28;20043;-69
2023/06/14 08:46:47;;;;;;;7.53;2.78;;;;;;;26.44;30.72;97824.31;10556686;28;20051;-69
2023/06/14 08:52:10;;;;;;;4.50;2.75;;;;;;;26.45;30.12;97829.34;10550268;28;20538;-69
2023/06/14 08:57:31;;;;;;;5.07;2.28;;;;;;;25.82;30.11;97834.56;10569714;28;20118;-69
2023/06/14 09:02:57;;;;;;;3.22;2.25;;;;;;;27.12;29.98;97833.97;10555271;28;20078;-69
2023/06/14 09:08:18;;;;;;;7.85;2.47;;;;;;;27.07;27.87;97831.09;10556935;28;20039;-69
2023/06/14 09:13:40;;;;;;;5.72;2.35;;;;;;;26.72;28.58;97832.34;10569312;28;20093;-70
2023/06/14 09:19:02;;;;;;;5.43;2.45;;;;;;;25.95;28.63;97830.38;10568660;28;20469;-69
2023/06/14 09:24:25;;;;;;;;;;;;;;;25.44;28.24;97834.19;10569298;28;20066;-69
2023/06/14 09:29:46;;;;;;;4.82;2.33;;;;;;;24.59;29.61;97828.16;10554326;28;19919;-69
2023/06/14 09:35:08;;;;;;;3.13;2.30;;;;;;;25.11;29.80;97830.97;10583686;28;20485;-69
2023/06/14 09:40:33;;;;;;;10.30;2.40;;;;;;;25.13;29.90;97821.72;10554010;28;20062;-69
2023/06/14 09:45:55;;;;;;;5.35;2.22;;;;;;;24.54;30.87;97828.09;10553086;28;20477;-69
2023/06/14 09:51:15;;;;;;;3.88;2.30;;;;;;;24.40;31.34;97825.03;10553390;28;20040;-69
2023/06/14 09:56:44;;;;;;;3.67;2.58;;;;;;;24.86;31.98;97824.22;10553598;28;20123;-69
2023/06/14 10:02:09;;;;;;;5.18;2.30;;;;;;;26.49;30.96;97825.78;10553526;28;20066;-69
2023/06/14 10:07:35;;;;;;;4.85;2.50;;;;;;;26.63;29.28;97816.53;10539287;28;20401;-69
2023/06/14 10:12:57;;;;;;;3.85;1.95;;;;;;;27.25;28.43;97816.13;10567480;28;20393;-69
2023/06/14 10:18:25;;;;;;;4.97;2.50;;;;;;;26.94;27.21;97812.41;10552879;28;20043;-69
2023/06/14 10:23:46;;;;;;;5.22;2.10;;;;;;;26.53;27.85;97808.63;10566534;28;20466;-69
2023/06/14 10:29:08;;;;;;;2.50;1.90;;;;;;;26.99;27.37;97804.53;10566915;28;20047;-69
2023/06/14 10:34:30;;;;;;;2.95;1.75;;;;;;;27.68;26.78;97816.19;10538261;28;20373;-69
2023/06/14 10:39:51;;;;;;;3.80;2.22;;;;;;;26.75;26.03;97803.03;10541960;28;20453;-69
2023/06/14 10:45:12;;;;;;;6.20;1.80;;;;;;;26.34;25.78;97796.31;10538030;28;20044;-69
2023/06/14 10:50:35;;;;;;;2.90;2.05;;;;;;;26.10;26.11;97796.19;10581308;28;20126;-69
2023/06/14 10:55:56;;;;;;;5.72;2.10;;;;;;;26.63;26.68;97790.78;10566199;28;20473;-70
2023/06/14 11:01:20;;;;;;;4.07;2.10;;;;;;;27.48;25.94;97788.19;10560125;28;20396;-70
2023/06/14 11:06:48;;;;;;;2.63;1.55;;;;;;;28.06;25.35;97789.66;10561152;28;20047;-70
2023/06/14 11:12:11;;;;;;;1.63;1.45;;;;;;;27.87;25.04;97791.13;10560281;28;20040;-69
2023/06/14 11:17:33;;;;;;;3.20;1.90;;;;;;;26.45;26.33;97783.56;10573896;28;20044;-69
2023/06/14 11:22:54;;;;;;;2.55;2.00;;;;;;;25.65;27.07;97790.09;10573519;28;20076;-69
2023/06/14 11:28:15;;;;;;;4.65;2.00;;;;;;;24.61;27.91;97780.41;10559335;28;20040;-69
2023/06/14 11:33:36;;;;;;;3.65;1.80;;;;;;;24.61;28.77;97788.97;10573347;28;20047;-69
2023/06/14 11:39:03;;;;;;;3.20;1.63;;;;;;;25.36;27.98;97786.25;10558421;28;20054;-69
2023/06/14 11:44:24;;;;;;;3.25;1.70;;;;;;;26.49;26.71;97780.72;10572590;28;20081;-69
2023/06/14 11:49:46;;;;;;;3.70;1.60;;;;;;;26.89;26.12;97770.13;10558404;28;20047;-70
2023/06/14 11:55:08;;;;;;;7.63;1.90;;;;;;;26.33;26.30;97774.88;10558105;28;20047;-69
2023/06/14 12:00:29;;;;;;;3.33;1.80;;;;;;;25.58;27.26;97766.47;10587266;28;20035;-69
2023/06/14 12:05:51;;;;;;;3.85;1.77;;;;;;;25.57;27.66;97764.28;10571837;28;20500;-69
2023/06/14 12:11:15;;;;;;;2.03;1.40;;;;;;;26.06;27.28;97759.72;10557645;28;20046;-69
2023/06/14 12:16:38;;;;;;;3.28;1.95;;;;;;;25.29;26.70;97765.50;10571503;28;20417;-69
2023/06/14 12:22:01;;;;;;;3.80;1.70;;;;;;;24.31;28.25;97765.69;10557410;28;20043;-69
2023/06/14 12:27:23;;;;;;;3.67;1.90;;;;;;;23.98;29.61;97762.38;10557481;28;20504;-69
2023/06/14 12:32:45;;;;;;;;;;;;;;;23.31;30.96;97781.19;10557834;28;20390;-69
2023/06/14 12:38:06;;;;;;;4.82;2.00;;;;;;;23.09;31.38;97772.97;10571098;28;19931;-69
2023/06/14 12:43:26;;;;;;;3.50;1.90;;;;;;;22.91;31.60;97776.19;10556573;28;20067;-68
2023/06/14 12:48:47;;;;;;;4.82;1.60;;;;;;;22.75;32.06;97775.84;10570598;28;20126;-69
2023/06/14 12:54:08;;;;;;;2.80;1.80;;;;;;;22.88;31.83;97777.56;10570080;28;20097;-69
2023/06/14 12:59:32;;;;;;;4.63;2.00;;;;;;;22.72;31.95;97772.25;10555892;28;20118;-68
2023/06/14 13:04:53;;;;;;;4.03;1.88;;;;;;;22.81;31.71;97781.66;10584766;28;20521;-68
2023/06/14 13:10:15;;;;;;;2.30;1.65;;;;;;;22.92;31.35;97774.78;10584554;28;20071;-68
2023/06/14 13:15:38;;;;;;;3.28;1.73;;;;;;;23.37;31.17;97769.94;10555456;28;20069;-69
2023/06/14 13:20:58;;;;;;;5.00;1.70;;;;;;;23.69;30.25;97776.19;10569087;28;20063;-69
2023/06/14 13:26:19;;;;;;;3.03;1.75;;;;;;;24.03;29.29;97775.31;10568819;28;20118;-69
2023/06/14 13:31:40;;;;;;;2.55;1.42;;;;;;;24.13;29.09;97763.31;10568595;28;20472;-69
2023/06/14 13:37:01;;;;;;;2.58;1.23;;;;;;;24.35;29.09;97766.50;10568379;28;20116;-68
2023/06/14 13:42:21;;;;;;;4.13;1.75;;;;;;;25.46;27.78;97757.06;10583108;28;20075;-69
2023/06/14 13:47:42;;;;;;;3.75;1.73;;;;;;;25.65;26.20;97758.63;10551427;28;20482;-69
2023/06/14 13:53:03;;;;;;;5.38;1.67;;;;;;;26.02;26.18;97758.94;10567907;28;20469;-69
2023/06/14 13:58:25;;;;;;;4.90;1.38;;;;;;;26.39;23.91;97754.91;10567139;28;20513;-69
2023/06/14 14:03:47;;;;;;;5.23;1.63;;;;;;;25.43;25.12;97764.88;10566965;28;20075;-69
2023/06/14 14:09:10;;;;;;;4.80;2.30;;;;;;;24.55;27.03;97758.22;10567053;28;20043;-69
2023/06/14 14:14:32;;;;;;;6.93;1.95;;;;;;;23.43;30.01;97773.59;10567004;28;20047;-68
2023/06/14 14:19:52;;;;;;;3.22;2.15;;;;;;;23.24;31.57;97771.09;10566775;28;20393;-69
2023/06/14 14:25:13;;;;;;;3.88;2.15;;;;;;;22.68;31.93;97779.97;10552550;28;20386;-69
2023/06/14 14:30:35;;;;;;;2.72;1.90;;;;;;;22.23;32.96;97770.50;10566536;28;20043;-69
2023/06/14 14:35:55;;;;;;;3.53;2.15;;;;;;;22.03;33.06;97765.06;10566275;28;20043;-69
2023/06/14 14:41:16;;;;;;;5.18;2.10;;;;;;;21.90;33.51;97775.41;10524284;28;20043;-68
2023/06/14 14:46:37;;;;;;;3.08;1.83;;;;;;;21.75;33.97;97776.47;10581177;28;20036;-69
2023/06/14 14:51:58;;;;;;;3.63;2.00;;;;;;;21.67;34.01;97773.44;10581408;28;20054;-69
2023/06/14 14:57:36;;;;;;;4.75;2.10;;;;;;;21.39;33.81;97776.28;10556322;28;20443;-69
2023/06/14 15:02:57;;;;;;;4.50;2.00;;;;;;;21.08;34.44;97772.63;10566105;28;20079;-68
2023/06/14 15:08:18;;;;;;;2.70;1.92;;;;;;;21.17;34.40;97772.84;10566114;28;20114;-68
2023/06/14 15:13:39;;;;;;;3.13;1.77;;;;;;;21.38;34.13;97781.25;10580640;28;20043;-68
2023/06/14 15:19:00;;;;;;;3.75;2.13;;;;;;;21.51;34.05;97775.84;10580821;28;20115;-68
2023/06/14 15:24:21;;;;;;;4.13;2.20;;;;;;;21.76;33.80;97777.19;10565236;28;20043;-68
2023/06/14 15:30:01;;;;;;;6.35;2.00;;;;;;;21.73;33.61;97773.59;10580412;28;20605;-68
2023/06/14 15:35:22;;;;;;;2.75;1.73;;;;;;;22.04;33.53;97775.03;10551473;28;20039;-69
2023/06/14 15:40:43;;;;;;;5.15;1.73;;;;;;;22.08;33.30;97775.13;10550893;28;20043;-69
2023/06/14 15:46:03;;;;;;;5.30;1.73;;;;;;;21.76;33.13;97771.50;10570049;28;20039;-69
2023/06/14 15:51:24;;;;;;;3.08;1.80;;;;;;;21.64;33.10;97769.81;10572638;28;20067;-69
2023/06/14 15:56:45;;;;;;;3.38;1.90;;;;;;;21.50;33.19;97772.31;10558252;28;20059;-69
2023/06/14 16:02:06;;;;;;;3.35;2.15;;;;;;;21.05;33.61;97756.22;10557629;28;20135;-68
2023/06/14 16:07:27;;;;;;;5.88;1.85;;;;;;;21.01;34.14;97767.44;10571986;28;20035;-68
2023/06/14 16:12:48;;;;;;;8.57;1.98;;;;;;;21.08;34.23;97761.28;10571876;28;20066;-66
2023/06/14 16:18:09;;;;;;;3.78;1.80;;;;;;;20.97;34.64;97765.25;10571617;28;20046;-69
2023/06/14 16:23:30;;;;;;;4.18;1.83;;;;;;;20.71;35.19;97775.84;10571584;28;20044;-68
2023/06/14 16:28:52;;;;;;;2.78;1.92;;;;;;;20.56;35.92;97760.56;10557322;28;20067;-68
2023/06/14 16:34:14;;;;;;;3.65;1.58;;;;;;;20.48;36.35;97766.00;10571311;28;20096;-69
2023/06/14 16:39:35;;;;;;;3.40;2.17;;;;;;;20.43;36.77;97770.81;10586312;28;20040;-68
2023/06/14 16:44:58;;;;;;;3.03;2.05;;;;;;;20.29;36.65;97779.59;10556558;28;20043;-68
2023/06/14 16:50:19;;;;;;;5.22;1.92;;;;;;;20.20;36.76;97785.69;10571166;28;20074;-68
2023/06/14 16:55:41;;;;;;;4.65;2.10;;;;;;;20.03;36.85;97781.63;10569864;28;20043;-68
2023/06/14 17:01:02;;;;;;;3.53;2.20;;;;;;;19.93;37.39;97790.53;10585073;28;20035;-69
2023/06/14 17:06:23;;;;;;;7.57;2.50;;;;;;;19.91;37.50;97787.63;10555647;28;20485;-69
2023/06/14 17:11:44;;;;;;;4.45;2.15;;;;;;;19.88;37.93;97791.06;10555400;28;20050;-69
2023/06/14 17:17:05;;;;;;;4.03;1.83;;;;;;;19.90;38.13;97796.81;10555354;28;20066;-68
2023/06/14 17:22:27;;;;;;;5.25;2.22;;;;;;;19.92;38.12;97808.91;10584119;28;20047;-69
2023/06/14 17:27:47;;;;;;;4.25;2.28;;;;;;;19.96;38.19;97811.88;10584114;28;20405;-69
2023/06/14 17:33:09;;;;;;;3.65;2.40;;;;;;;19.90;38.19;97796.81;10568493;28;20105;-68
2023/06/14 17:38:33;;;;;;;8.30;2.10;;;;;;;19.79;38.50;97812.03;10555311;28;20067;-68
2023/06/14 17:43:54;;;;;;;4.28;2.28;;;;;;;19.71;39.14;97809.66;10583089;28;20039;-69
2023/06/14 17:49:14;;;;;;;4.43;2.50;;;;;;;19.54;39.45;97811.19;10583124;28;20393;-68
2023/06/14 17:54:35;;;;;;;7.38;2.42;;;;;;;19.33;40.03;97811.88;10567675;28;20052;-68
2023/06/14 17:59:56;;;;;;;3.28;2.00;;;;;;;19.23;40.95;97817.94;10567062;28;20040;-68
2023/06/14 18:05:17;;;;;;;5.07;2.17;;;;;;;19.14;41.04;97819.03;10582112;28;20051;-69
2023/06/14 18:10:39;;;;;;;6.88;3.00;;;;;;;19.01;41.50;97831.25;10582205;28;20259;-69
2023/06/14 18:16:00;;;;;;;4.07;2.63;;;;;;;18.80;41.83;97826.97;10567218;28;20046;-68
2023/06/14 18:21:21;;;;;;;3.35;2.70;;;;;;;18.65;42.32;97822.19;10552841;28;20040;-69
2023/06/14 18:26:42;;;;;;;4.68;2.17;;;;;;;18.48;42.77;97824.38;10552660;28;20044;-69
2023/06/14 18:32:03;;;;;;;4.70;2.47;;;;;;;18.38;43.04;97826.81;10566566;28;20081;-69
2023/06/14 18:37:24;;;;;;;4.53;2.08;;;;;;;18.20;43.12;97832.50;10566539;28;20496;-68
2023/06/14 18:42:45;;;;;;;3.15;2.10;;;;;;;18.05;43.57;97829.75;10552545;28;20434;-68
2023/06/14 18:48:06;;;;;;;5.10;2.20;;;;;;;17.88;44.58;97828.41;10581369;28;20047;-69
2023/06/14 18:53:27;;;;;;;7.38;2.42;;;;;;;17.72;44.85;97834.81;10552282;28;20040;-68
2023/06/14 18:58:48;;;;;;;3.50;2.38;;;;;;;17.58;45.03;97833.50;10581175;28;20084;-68
2023/06/14 19:04:09;;;;;;;3.45;2.17;;;;;;;17.37;45.48;97832.66;10580650;28;20109;-68
2023/06/14 19:09:30;;;;;;;5.80;2.28;;;;;;;17.15;45.85;97828.88;10580925;28;20039;-68
2023/06/14 19:14:51;;;;;;;6.85;2.67;;;;;;;16.98;46.44;97835.16;10580991;28;20039;-69
2023/06/14 19:20:12;;;;;;;4.53;2.50;;;;;;;16.83;46.74;97837.38;10586700;28;20115;-69
2023/06/14 19:25:33;;;;;;;4.32;3.13;;;;;;;16.69;47.17;97844.44;10573806;28;20542;-69
2023/06/14 19:30:53;;;;;;;3.45;2.30;;;;;;;16.55;47.34;97855.78;10573890;28;20058;-68
2023/06/14 19:36:16;;;;;;;4.60;2.40;;;;;;;16.43;47.45;97855.97;10573399;28;20051;-68
2023/06/14 19:41:37;;;;;;;6.23;2.87;;;;;;;16.36;47.83;97859.13;10545239;28;20094;-68
2023/06/14 19:46:58;;;;;;;6.97;3.13;;;;;;;16.27;47.87;97867.19;10588577;28;20044;-67
2023/06/14 19:52:18;;;;;;;5.53;3.17;;;;;;;16.21;47.91;97866.16;10558802;28;20043;-68
2023/06/14 19:57:39;;;;;;;5.75;3.30;;;;;;;16.14;48.62;97876.44;10588037;28;20102;-68
2023/06/14 20:03:00;;;;;;;10.35;3.17;;;;;;;16.05;48.49;97880.22;10572187;28;20059;-68
2023/06/14 20:08:23;;;;;;;6.32;3.35;;;;;;;15.96;48.56;97884.00;10558475;28;20043;-68
2023/06/14 20:13:45;;;;;;;5.18;3.30;;;;;;;15.88;48.99;97878.69;10558517;28;20071;-68
2023/06/14 20:19:06;;;;;;;5.80;3.10;;;;;;;15.81;49.22;97891.00;10572207;28;20068;-68
2023/06/14 20:24:26;;;;;;;5.60;3.33;;;;;;;15.68;49.28;97884.06;10587000;28;20042;-68
2023/06/14 20:29:47;;;;;;;6.43;3.63;;;;;;;15.60;49.60;97889.28;10558675;28;20067;-68
2023/06/14 20:35:08;;;;;;;5.18;3.80;;;;;;;15.53;50.48;97890.28;10586820;28;20040;-68
2023/06/14 20:40:29;;;;;;;4.70;3.35;;;;;;;15.50;50.27;97893.63;10556776;28;20039;-67
2023/06/14 20:45:50;;;;;;;5.28;3.58;;;;;;;15.44;50.67;97896.84;10586227;28;20047;-68
2023/06/14 20:51:12;;;;;;;4.47;3.58;;;;;;;15.45;51.10;97898.34;10570691;28;20191;-68
2023/06/14 20:56:33;;;;;;;5.47;3.42;;;;;;;15.49;51.08;97895.00;10585709;28;20074;-68
2023/06/14 21:01:53;;;;;;;6.10;3.80;;;;;;;15.53;51.22;97904.34;10585119;28;20150;-68
2023/06/14 21:07:14;;;;;;;7.38;3.95;;;;;;;15.49;51.06;97895.72;10585253;28;20111;-68
2023/06/14 21:12:35;;;;;;;6.45;3.58;;;;;;;15.42;51.47;97891.13;10569864;28;20120;-67
2023/06/14 21:17:55;;;;;;;6.38;3.58;;;;;;;15.44;51.91;97896.84;10584784;28;20123;-68
2023/06/14 21:23:16;;;;;;;6.82;3.85;;;;;;;15.40;51.88;97896.66;10555028;28;20043;-68
2023/06/14 21:28:37;;;;;;;4.53;3.42;;;;;;;15.41;52.17;97890.41;10568821;28;20136;-68
2023/06/14 21:33:57;;;;;;;5.22;3.35;;;;;;;15.50;52.24;97900.00;10568763;28;20493;-68
2023/06/14 21:39:19;;;;;;;7.47;4.10;;;;;;;15.52;52.37;97897.28;10540211;28;20161;-68
2023/06/14 21:44:41;;;;;;;6.63;3.58;;;;;;;15.50;52.79;97905.59;10567289;28;20035;-67
2023/06/14 21:50:03;;;;;;;8.18;4.00;;;;;;;15.44;52.91;97908.09;10554247;28;20043;-67
2023/06/14 21:55:25;;;;;;;6.50;3.83;;;;;;;15.32;53.23;97904.69;10553614;28;20537;-67
2023/06/14 22:00:46;;;;;;;6.18;3.85;;;;;;;15.23;53.25;97903.53;10567978;28;20044;-68
2023/06/14 22:06:07;;;;;;;6.20;4.13;;;;;;;15.20;53.73;97910.41;10582585;28;20067;-67
2023/06/14 22:11:33;;;;;;;4.35;3.58;;;;;;;15.24;54.09;97907.78;10553352;28;20047;-68
2023/06/14 22:16:58;;;;;;;5.18;4.45;;;;;;;15.25;54.15;97914.16;10553687;28;20115;-68
2023/06/14 22:22:24;;;;;;;8.57;4.10;;;;;;;15.27;54.29;97908.66;10567390;28;20469;-67
2023/06/14 22:27:46;;;;;;;6.10;4.00;;;;;;;15.24;54.27;97909.88;10554469;28;20064;-67
2023/06/14 22:33:07;;;;;;;5.40;3.65;;;;;;;15.20;54.99;97913.22;10566607;28;20044;-67
2023/06/14 22:38:29;;;;;;;8.70;4.07;;;;;;;15.16;54.86;97905.31;10566571;28;20035;-68
2023/06/14 22:43:51;;;;;;;9.00;3.80;;;;;;;15.11;55.07;97908.53;10552182;28;20055;-68
2023/06/14 22:49:14;;;;;;;6.25;4.28;;;;;;;15.02;55.41;97915.78;10552068;28;20047;-68
2023/06/14 22:54:35;;;;;;;7.43;4.15;;;;;;;14.91;55.80;97908.19;10552569;28;20047;-68
2023/06/14 22:59:58;;;;;;;7.00;4.13;;;;;;;14.76;55.93;97915.13;10581106;28;20046;-68
2023/06/14 23:05:19;;;;;;;6.05;3.92;;;;;;;14.63;56.37;97909.47;10565602;28;20059;-68
2023/06/14 23:10:40;;;;;;;5.85;4.13;;;;;;;14.50;56.81;97910.91;10582357;28;20088;-69
2023/06/14 23:16:01;;;;;;;6.60;4.10;;;;;;;14.41;57.29;97911.78;10565948;28;20051;-67
2023/06/14 23:21:22;;;;;;;6.28;4.43;;;;;;;14.27;57.36;97915.22;10551282;28;20044;-68
2023/06/14 23:26:45;;;;;;;6.40;4.40;;;;;;;14.12;57.71;97909.47;10551461;28;20115;-68
2023/06/14 23:32:07;;;;;;;5.75;3.92;;;;;;;14.02;58.13;97907.53;10580918;28;20075;-67
2023/06/14 23:37:30;;;;;;;8.30;4.75;;;;;;;13.93;58.48;97902.09;10565451;28;20124;-68
2023/06/14 23:42:51;;;;;;;7.13;4.30;;;;;;;13.88;58.94;97903.91;10580499;28;20142;-67
2023/06/14 23:48:12;;;;;;;7.32;4.18;;;;;;;13.89;58.98;97894.16;10565226;28;20301;-67
2023/06/14 23:53:37;;;;;;;5.47;4.28;;;;;;;13.72;59.02;97895.31;10565264;28;20118;-68
2023/06/14 23:58:58;;;;;;;7.28;5.00;;;;;;;13.55;59.54;97881.69;10552089;28;20075;-68
